createdAt,value
2018-08-27T00:00:32.918Z,100762.81
2018-08-27T00:01:11.277Z,100762.53
2018-08-27T00:01:49.682Z,100766.03
2018-08-27T00:02:28.148Z,100762.52
2018-08-27T00:03:06.744Z,100768.16
2018-08-27T00:03:45.606Z,100760.34
2018-08-27T00:04:24.455Z,100761.67
2018-08-27T00:05:03.147Z,100766.52
2018-08-27T00:05:41.678Z,100770.00
2018-08-27T00:06:20.171Z,100761.09
2018-08-27T00:06:58.677Z,100765.40
2018-08-27T00:07:37.191Z,100767.03
2018-08-27T00:08:16.071Z,100767.56
2018-08-27T00:08:54.684Z,100765.67
2018-08-27T00:09:33.210Z,100767.00
2018-08-27T00:10:11.815Z,100759.72
2018-08-27T00:10:50.364Z,100766.98
2018-08-27T00:11:28.951Z,100764.00
2018-08-27T00:12:07.511Z,100760.48
2018-08-27T00:12:46.196Z,100761.55
2018-08-27T00:13:24.604Z,100765.31
2018-08-27T00:14:03.206Z,100771.22
2018-08-27T00:14:42.372Z,100764.75
2018-08-27T00:15:20.987Z,100765.27
2018-08-27T00:15:59.460Z,100769.03
2018-08-27T00:16:38.209Z,100770.39
2018-08-27T00:17:17.077Z,100769.56
2018-08-27T00:17:55.716Z,100774.12
2018-08-27T00:18:34.236Z,100775.99
2018-08-27T00:19:12.788Z,100776.25
2018-08-27T00:19:51.951Z,100780.53
2018-08-27T00:20:30.537Z,100779.17
2018-08-27T00:21:09.715Z,100780.77
2018-08-27T00:21:48.851Z,100780.78
2018-08-27T00:22:27.413Z,100782.65
2018-08-27T00:23:06.861Z,100782.37
2018-08-27T00:23:45.869Z,100789.39
2018-08-27T00:24:24.370Z,100787.48
2018-08-27T00:25:03.000Z,100784.24
2018-08-27T00:25:41.476Z,100789.61
2018-08-27T00:26:21.758Z,100785.83
2018-08-27T00:27:00.466Z,100783.66
2018-08-27T00:27:39.042Z,100782.83
2018-08-27T00:28:17.651Z,100785.50
2018-08-27T00:28:56.297Z,100786.82
2018-08-27T00:29:34.892Z,100789.49
2018-08-27T00:30:16.575Z,100787.58
2018-08-27T00:30:55.451Z,100788.92
2018-08-27T00:31:33.922Z,100792.66
2018-08-27T00:32:12.689Z,100799.12
2018-08-27T00:32:51.458Z,100792.64
2018-08-27T00:33:31.354Z,100796.66
2018-08-27T00:34:10.252Z,100794.73
2018-08-27T00:34:48.983Z,100800.91
2018-08-27T00:35:27.674Z,100802.77
2018-08-27T00:36:06.462Z,100808.14
2018-08-27T00:36:45.058Z,100803.04
2018-08-27T00:37:23.619Z,100807.31
2018-08-27T00:38:02.156Z,100805.94
2018-08-27T00:38:40.704Z,100808.35
2018-08-27T00:39:20.472Z,100809.16
2018-08-27T00:39:58.865Z,100806.44
2018-08-27T00:40:37.137Z,100809.10
2018-08-27T00:41:15.311Z,100804.77
2018-08-27T00:41:53.386Z,100810.13
2018-08-27T00:42:31.329Z,100803.91
2018-08-27T00:43:09.310Z,100804.20
2018-08-27T00:43:47.469Z,100812.80
2018-08-27T00:44:25.694Z,100808.47
2018-08-27T00:45:03.604Z,100809.79
2018-08-27T00:45:41.569Z,100807.09
2018-08-27T00:46:19.483Z,100814.61
2018-08-27T00:46:57.766Z,100813.27
2018-08-27T00:47:35.681Z,100819.17
2018-08-27T00:48:13.621Z,100810.53
2018-08-27T00:48:51.550Z,100821.84
2018-08-27T00:49:29.447Z,100823.73
2018-08-27T00:50:07.412Z,100821.04
2018-08-27T00:50:45.312Z,100821.84
2018-08-27T00:51:23.177Z,100823.70
2018-08-27T00:52:01.258Z,100824.77
2018-08-27T00:52:40.300Z,100831.23
2018-08-27T00:53:18.203Z,100834.98
2018-08-27T00:53:56.280Z,100838.49
2018-08-27T00:54:34.209Z,100832.55
2018-08-27T00:55:12.125Z,100832.84
2018-08-27T00:55:50.078Z,100832.84
2018-08-27T00:56:28.020Z,100838.49
2018-08-27T00:57:05.844Z,100834.96
2018-08-27T00:57:43.777Z,100839.81
2018-08-27T00:58:21.664Z,100844.66
2018-08-27T00:58:59.596Z,100845.18
2018-08-27T00:59:37.527Z,100847.59
2018-08-27T01:00:16.551Z,100847.56
2018-08-27T01:00:54.428Z,100852.95
2018-08-27T01:01:32.883Z,100855.91
2018-08-27T01:02:10.844Z,100860.73
2018-08-27T01:02:48.734Z,100860.73
2018-08-27T01:03:27.477Z,100858.55
2018-08-27T01:04:05.426Z,100857.72
2018-08-27T01:04:43.419Z,100862.02
2018-08-27T01:05:22.282Z,100858.78
2018-08-27T01:06:00.234Z,100863.34
2018-08-27T01:06:38.226Z,100860.13
2018-08-27T01:07:16.104Z,100866.59
2018-08-27T01:07:54.628Z,100864.14
2018-08-27T01:08:33.750Z,100864.41
2018-08-27T01:09:12.194Z,100863.31
2018-08-27T01:09:50.223Z,100871.92
2018-08-27T01:10:29.087Z,100867.58
2018-08-27T01:11:06.981Z,100865.94
2018-08-27T01:11:44.925Z,100865.11
2018-08-27T01:12:22.972Z,100870.77
2018-08-27T01:13:01.882Z,100866.45
2018-08-27T01:13:39.913Z,100871.80
2018-08-27T01:14:17.892Z,100875.00
2018-08-27T01:14:55.819Z,100869.34
2018-08-27T01:15:33.808Z,100869.86
2018-08-27T01:16:11.696Z,100872.27
2018-08-27T01:16:49.615Z,100874.94
2018-08-27T01:17:27.519Z,100872.20
2018-08-27T01:18:05.419Z,100870.01
2018-08-27T01:18:43.331Z,100873.48
2018-08-27T01:19:21.408Z,100869.94
2018-08-27T01:19:59.581Z,100879.36
2018-08-27T01:20:37.563Z,100873.66
2018-08-27T01:21:15.625Z,100869.09
2018-08-27T01:21:53.663Z,100872.02
2018-08-27T01:22:31.577Z,100880.63
2018-08-27T01:23:09.546Z,100878.44
2018-08-27T01:23:47.693Z,100871.95
2018-08-27T01:24:26.683Z,100873.80
2018-08-27T01:25:04.675Z,100878.63
2018-08-27T01:25:42.583Z,100882.64
2018-08-27T01:26:20.497Z,100878.33
2018-08-27T01:26:58.427Z,100882.09
2018-08-27T01:27:36.549Z,100882.05
2018-08-27T01:28:14.622Z,100874.45
2018-08-27T01:28:52.787Z,100876.34
2018-08-27T01:29:33.712Z,100872.80
2018-08-27T01:30:11.676Z,100872.47
2018-08-27T01:30:49.529Z,100875.93
2018-08-27T01:31:27.506Z,100876.44
2018-08-27T01:32:09.651Z,100882.61
2018-08-27T01:32:47.600Z,100882.28
2018-08-27T01:33:25.525Z,100885.77
2018-08-27T01:34:03.496Z,100881.13
2018-08-27T01:34:41.413Z,100885.95
2018-08-27T01:35:19.394Z,100888.06
2018-08-27T01:35:58.908Z,100880.75
2018-08-27T01:36:37.630Z,100885.23
2018-08-27T01:37:15.777Z,100883.28
2018-08-27T01:37:54.632Z,100888.94
2018-08-27T01:38:33.002Z,100880.28
2018-08-27T01:39:11.975Z,100885.88
2018-08-27T01:39:49.941Z,100891.50
2018-08-27T01:40:27.978Z,100888.45
2018-08-27T01:41:05.987Z,100890.02
2018-08-27T01:41:44.001Z,100893.21
2018-08-27T01:42:22.034Z,100889.91
2018-08-27T01:43:00.103Z,100884.75
2018-08-27T01:43:38.484Z,100891.42
2018-08-27T01:44:16.609Z,100889.22
2018-08-27T01:44:54.686Z,100887.52
2018-08-27T01:45:32.871Z,100888.83
2018-08-27T01:46:10.823Z,100879.66
2018-08-27T01:46:48.696Z,100892.27
2018-08-27T01:47:26.704Z,100887.61
2018-08-27T01:48:04.723Z,100895.64
2018-08-27T01:48:43.170Z,100892.33
2018-08-27T01:49:21.135Z,100896.33
2018-08-27T01:49:59.385Z,100897.92
2018-08-27T01:50:37.461Z,100899.22
2018-08-27T01:51:15.689Z,100899.62
2018-08-27T01:51:53.659Z,100906.53
2018-08-27T01:52:31.694Z,100890.78
2018-08-27T01:53:10.166Z,100906.86
2018-08-27T01:53:48.890Z,100899.18
2018-08-27T01:54:27.618Z,100899.38
2018-08-27T01:55:06.212Z,100905.19
2018-08-27T01:55:44.964Z,100903.75
2018-08-27T01:56:23.548Z,100902.07
2018-08-27T01:57:01.853Z,100908.13
2018-08-27T01:57:40.202Z,100901.80
2018-08-27T01:58:18.527Z,100909.78
2018-08-27T01:58:56.896Z,100906.09
2018-08-27T01:59:35.249Z,100908.64
2018-08-27T02:00:14.113Z,100907.63
2018-08-27T02:00:52.497Z,100911.80
2018-08-27T02:01:30.815Z,100908.09
2018-08-27T02:02:09.249Z,100907.70
2018-08-27T02:02:47.374Z,100910.66
2018-08-27T02:03:26.153Z,100905.63
2018-08-27T02:04:04.372Z,100917.39
2018-08-27T02:04:42.558Z,100909.05
2018-08-27T02:05:21.066Z,100910.55
2018-08-27T02:05:59.625Z,100912.86
2018-08-27T02:06:38.790Z,100913.77
2018-08-27T02:07:16.925Z,100910.30
2018-08-27T02:07:55.150Z,100910.29
2018-08-27T02:08:33.326Z,100915.89
2018-08-27T02:09:12.827Z,100909.66
2018-08-27T02:09:54.546Z,100908.91
2018-08-27T02:10:32.864Z,100909.25
2018-08-27T02:11:11.180Z,100911.46
2018-08-27T02:11:49.413Z,100909.80
2018-08-27T02:12:27.609Z,100908.66
2018-08-27T02:13:05.911Z,100903.55
2018-08-27T02:13:44.028Z,100912.06
2018-08-27T02:14:22.364Z,100911.78
2018-08-27T02:15:00.557Z,100907.70
2018-08-27T02:15:38.748Z,100903.61
2018-08-27T02:16:17.140Z,100906.92
2018-08-27T02:16:55.281Z,100910.19
2018-08-27T02:17:33.444Z,100909.17
2018-08-27T02:18:11.696Z,100909.19
2018-08-27T02:18:49.881Z,100913.11
2018-08-27T02:19:28.019Z,100907.41
2018-08-27T02:20:07.285Z,100916.80
2018-08-27T02:20:45.557Z,100910.28
2018-08-27T02:21:23.642Z,100911.30
2018-08-27T02:22:07.446Z,100913.67
2018-08-27T02:22:45.621Z,100907.80
2018-08-27T02:23:24.896Z,100909.08
2018-08-27T02:24:03.737Z,100904.66
2018-08-27T02:24:41.624Z,100911.30
2018-08-27T02:25:20.110Z,100911.67
2018-08-27T02:25:58.139Z,100915.52
2018-08-27T02:26:36.380Z,100913.73
2018-08-27T02:27:14.357Z,100909.00
2018-08-27T02:27:52.352Z,100909.47
2018-08-27T02:28:30.449Z,100911.45
2018-08-27T02:29:08.689Z,100907.27
2018-08-27T02:29:46.544Z,100912.35
2018-08-27T02:30:24.607Z,100904.41
2018-08-27T02:31:02.540Z,100907.94
2018-08-27T02:31:40.644Z,100902.86
2018-08-27T02:32:22.627Z,100904.50
2018-08-27T02:33:00.619Z,100905.94
2018-08-27T02:33:38.529Z,100902.36
2018-08-27T02:34:17.297Z,100902.86
2018-08-27T02:34:55.301Z,100905.79
2018-08-27T02:35:33.351Z,100902.33
2018-08-27T02:36:11.371Z,100897.34
2018-08-27T02:36:49.485Z,100896.47
2018-08-27T02:37:27.877Z,100896.70
2018-08-27T02:38:05.733Z,100897.33
2018-08-27T02:38:46.639Z,100891.10
2018-08-27T02:39:24.513Z,100896.14
2018-08-27T02:40:02.655Z,100900.30
2018-08-27T02:40:40.562Z,100892.92
2018-08-27T02:41:18.588Z,100888.98
2018-08-27T02:41:56.485Z,100891.50
2018-08-27T02:42:34.445Z,100894.92
2018-08-27T02:43:12.359Z,100891.55
2018-08-27T02:43:50.495Z,100886.78
2018-08-27T02:44:28.502Z,100892.20
2018-08-27T02:45:06.344Z,100887.34
2018-08-27T02:45:44.288Z,100887.47
2018-08-27T02:46:22.251Z,100888.04
2018-08-27T02:47:00.181Z,100887.24
2018-08-27T02:47:38.067Z,100891.35
2018-08-27T02:48:15.925Z,100889.98
2018-08-27T02:48:56.061Z,100894.77
2018-08-27T02:49:34.109Z,100889.20
2018-08-27T02:50:12.139Z,100889.33
2018-08-27T02:50:50.219Z,100889.59
2018-08-27T02:51:28.146Z,100888.27
2018-08-27T02:52:06.062Z,100890.44
2018-08-27T02:52:44.234Z,100890.09
2018-08-27T02:53:22.871Z,100892.41
2018-08-27T02:54:00.746Z,100890.36
2018-08-27T02:54:38.698Z,100883.16
2018-08-27T02:55:17.139Z,100881.79
2018-08-27T02:55:57.973Z,100886.27
2018-08-27T02:56:35.887Z,100883.76
2018-08-27T02:57:13.864Z,100883.08
2018-08-27T02:57:51.788Z,100882.16
2018-08-27T02:58:29.758Z,100882.36
2018-08-27T02:59:07.674Z,100880.65
2018-08-27T02:59:45.620Z,100885.08
2018-08-27T03:00:23.550Z,100881.44
2018-08-27T03:01:01.584Z,100883.00
2018-08-27T03:01:40.024Z,100881.85
2018-08-27T03:02:17.920Z,100882.50
2018-08-27T03:02:56.065Z,100879.34
2018-08-27T03:03:34.058Z,100878.62
2018-08-27T03:04:12.188Z,100873.61
2018-08-27T03:04:50.293Z,100873.39
2018-08-27T03:05:28.250Z,100870.77
2018-08-27T03:06:06.126Z,100871.78
2018-08-27T03:06:44.097Z,100871.64
2018-08-27T03:07:22.111Z,100868.76
2018-08-27T03:08:00.065Z,100866.47
2018-08-27T03:08:38.005Z,100868.74
2018-08-27T03:09:15.951Z,100866.20
2018-08-27T03:09:53.989Z,100868.67
2018-08-27T03:10:32.902Z,100869.76
2018-08-27T03:11:10.930Z,100862.78
2018-08-27T03:11:48.933Z,100863.06
2018-08-27T03:12:26.913Z,100860.34
2018-08-27T03:13:04.836Z,100862.53
2018-08-27T03:13:42.866Z,100868.73
2018-08-27T03:14:20.868Z,100864.17
2018-08-27T03:14:58.879Z,100867.10
2018-08-27T03:15:36.905Z,100866.64
2018-08-27T03:16:14.784Z,100870.56
2018-08-27T03:16:52.745Z,100864.98
2018-08-27T03:17:30.603Z,100868.67
2018-08-27T03:18:08.677Z,100874.00
2018-08-27T03:18:46.760Z,100867.84
2018-08-27T03:19:24.694Z,100871.47
2018-08-27T03:20:02.644Z,100871.89
2018-08-27T03:20:40.589Z,100870.30
2018-08-27T03:21:18.587Z,100867.34
2018-08-27T03:21:56.592Z,100864.61
2018-08-27T03:22:35.515Z,100869.17
2018-08-27T03:23:13.464Z,100867.14
2018-08-27T03:23:51.458Z,100874.80
2018-08-27T03:24:29.441Z,100870.60
2018-08-27T03:25:07.397Z,100869.94
2018-08-27T03:25:45.587Z,100872.03
2018-08-27T03:26:23.534Z,100871.86
2018-08-27T03:27:02.237Z,100869.83
2018-08-27T03:27:40.186Z,100867.13
2018-08-27T03:28:18.116Z,100871.02
2018-08-27T03:28:56.348Z,100868.11
2018-08-27T03:29:34.349Z,100860.03
2018-08-27T03:30:12.464Z,100866.31
2018-08-27T03:30:50.349Z,100870.20
2018-08-27T03:31:28.258Z,100869.53
2018-08-27T03:32:06.268Z,100866.56
2018-08-27T03:32:44.271Z,100868.14
2018-08-27T03:33:23.448Z,100872.80
2018-08-27T03:34:01.337Z,100872.34
2018-08-27T03:34:39.205Z,100868.34
2018-08-27T03:35:17.424Z,100872.08
2018-08-27T03:35:55.345Z,100869.88
2018-08-27T03:36:33.237Z,100871.45
2018-08-27T03:37:11.162Z,100868.73
2018-08-27T03:37:49.028Z,100874.41
2018-08-27T03:38:26.937Z,100868.73
2018-08-27T03:39:06.692Z,100875.78
2018-08-27T03:39:44.728Z,100872.48
2018-08-27T03:40:22.593Z,100869.66
2018-08-27T03:41:00.487Z,100866.05
2018-08-27T03:41:38.335Z,100870.05
2018-08-27T03:42:16.508Z,100871.77
2018-08-27T03:42:54.449Z,100860.75
2018-08-27T03:43:32.360Z,100863.38
2018-08-27T03:44:10.576Z,100861.11
2018-08-27T03:44:49.384Z,100862.27
2018-08-27T03:45:27.297Z,100859.36
2018-08-27T03:46:05.095Z,100857.77
2018-08-27T03:46:43.667Z,100857.27
2018-08-27T03:47:21.543Z,100855.19
2018-08-27T03:47:59.581Z,100854.16
2018-08-27T03:48:37.630Z,100855.19
2018-08-27T03:49:15.785Z,100852.59
2018-08-27T03:49:53.710Z,100855.09
2018-08-27T03:50:31.559Z,100845.26
2018-08-27T03:51:09.535Z,100849.25
2018-08-27T03:51:47.478Z,100848.24
2018-08-27T03:52:25.539Z,100850.63
2018-08-27T03:53:03.464Z,100848.83
2018-08-27T03:53:42.264Z,100848.16
2018-08-27T03:54:21.223Z,100851.50
2018-08-27T03:54:59.082Z,100843.73
2018-08-27T03:55:37.202Z,100842.23
2018-08-27T03:56:15.233Z,100842.98
2018-08-27T03:56:53.032Z,100845.50
2018-08-27T03:57:31.035Z,100846.30
2018-08-27T03:58:09.164Z,100836.62
2018-08-27T03:58:47.220Z,100838.84
2018-08-27T03:59:25.345Z,100837.02
2018-08-27T04:00:03.397Z,100836.78
2018-08-27T04:00:41.295Z,100834.73
2018-08-27T04:01:19.308Z,100835.88
2018-08-27T04:01:57.208Z,100837.24
2018-08-27T04:02:35.105Z,100830.65
2018-08-27T04:03:13.096Z,100830.30
2018-08-27T04:03:51.370Z,100828.01
2018-08-27T04:04:29.520Z,100824.95
2018-08-27T04:05:21.361Z,100826.50
2018-08-27T04:05:59.290Z,100825.59
2018-08-27T04:06:37.276Z,100825.83
2018-08-27T04:07:15.279Z,100825.03
2018-08-27T04:07:53.306Z,100821.05
2018-08-27T04:08:31.239Z,100825.49
2018-08-27T04:09:11.285Z,100820.83
2018-08-27T04:09:49.329Z,100820.50
2018-08-27T04:10:27.233Z,100817.43
2018-08-27T04:11:05.213Z,100817.89
2018-08-27T04:11:43.683Z,100816.76
2018-08-27T04:12:22.300Z,100810.84
2018-08-27T04:13:01.133Z,100809.27
2018-08-27T04:13:39.192Z,100806.55
2018-08-27T04:14:17.911Z,100809.77
2018-08-27T04:14:55.878Z,100811.09
2018-08-27T04:15:33.943Z,100813.61
2018-08-27T04:16:11.935Z,100814.09
2018-08-27T04:16:49.842Z,100813.08
2018-08-27T04:17:31.177Z,100803.53
2018-08-27T04:18:09.288Z,100807.27
2018-08-27T04:18:47.205Z,100805.91
2018-08-27T04:19:25.995Z,100801.58
2018-08-27T04:20:05.840Z,100803.18
2018-08-27T04:20:43.821Z,100803.25
2018-08-27T04:21:21.744Z,100802.73
2018-08-27T04:21:59.614Z,100797.27
2018-08-27T04:22:37.672Z,100797.50
2018-08-27T04:23:15.487Z,100794.44
2018-08-27T04:23:53.436Z,100792.99
2018-08-27T04:24:31.477Z,100799.59
2018-08-27T04:25:09.321Z,100801.53
2018-08-27T04:25:47.318Z,100793.45
2018-08-27T04:26:25.469Z,100796.65
2018-08-27T04:27:03.484Z,100794.71
2018-08-27T04:27:41.378Z,100791.91
2018-08-27T04:28:19.354Z,100793.39
2018-08-27T04:28:57.335Z,100787.81
2018-08-27T04:29:36.153Z,100786.79
2018-08-27T04:30:14.082Z,100786.45
2018-08-27T04:30:53.784Z,100782.13
2018-08-27T04:31:31.807Z,100784.06
2018-08-27T04:32:09.906Z,100778.48
2018-08-27T04:32:47.790Z,100773.94
2018-08-27T04:33:25.824Z,100779.52
2018-08-27T04:34:03.942Z,100779.41
2018-08-27T04:34:41.782Z,100775.53
2018-08-27T04:35:19.856Z,100780.77
2018-08-27T04:35:58.184Z,100779.52
2018-08-27T04:36:36.087Z,100782.39
2018-08-27T04:37:14.220Z,100775.33
2018-08-27T04:37:52.074Z,100776.50
2018-08-27T04:38:30.142Z,100773.42
2018-08-27T04:39:10.000Z,100775.02
2018-08-27T04:39:47.918Z,100776.30
2018-08-27T04:40:25.804Z,100772.65
2018-08-27T04:41:03.726Z,100774.70
2018-08-27T04:41:41.562Z,100778.34
2018-08-27T04:42:19.499Z,100773.90
2018-08-27T04:42:58.143Z,100773.55
2018-08-27T04:43:36.065Z,100770.14
2018-08-27T04:44:13.924Z,100771.73
2018-08-27T04:44:51.824Z,100768.75
2018-08-27T04:45:29.863Z,100766.37
2018-08-27T04:46:08.691Z,100771.49
2018-08-27T04:46:47.615Z,100766.25
2018-08-27T04:47:25.839Z,100768.30
2018-08-27T04:48:03.739Z,100767.61
2018-08-27T04:48:41.686Z,100760.91
2018-08-27T04:49:19.956Z,100768.30
2018-08-27T04:49:57.871Z,100760.22
2018-08-27T04:50:35.821Z,100758.73
2018-08-27T04:51:13.693Z,100754.19
2018-08-27T04:51:51.581Z,100760.45
2018-08-27T04:52:29.375Z,100757.72
2018-08-27T04:53:07.245Z,100757.03
2018-08-27T04:53:45.245Z,100755.66
2018-08-27T04:54:24.350Z,100755.32
2018-08-27T04:55:02.221Z,100752.84
2018-08-27T04:55:40.958Z,100751.25
2018-08-27T04:56:18.819Z,100756.25
2018-08-27T04:56:56.874Z,100748.95
2018-08-27T04:57:34.781Z,100747.12
2018-08-27T04:58:12.805Z,100748.48
2018-08-27T04:58:51.856Z,100750.08
2018-08-27T04:59:35.956Z,100742.13
2018-08-27T05:00:17.793Z,100744.97
2018-08-27T05:00:55.746Z,100738.37
2018-08-27T05:01:34.089Z,100742.92
2018-08-27T05:02:11.952Z,100747.12
2018-08-27T05:02:50.975Z,100745.30
2018-08-27T05:03:28.930Z,100753.73
2018-08-27T05:04:06.937Z,100749.30
2018-08-27T05:04:44.893Z,100746.46
2018-08-27T05:05:22.958Z,100748.28
2018-08-27T05:06:00.872Z,100749.53
2018-08-27T05:06:38.845Z,100746.80
2018-08-27T05:07:17.904Z,100744.87
2018-08-27T05:07:55.782Z,100742.13
2018-08-27T05:08:33.866Z,100740.44
2018-08-27T05:09:13.107Z,100731.22
2018-08-27T05:09:51.113Z,100734.17
2018-08-27T05:10:29.133Z,100732.09
2018-08-27T05:11:07.139Z,100731.87
2018-08-27T05:11:45.093Z,100732.56
2018-08-27T05:12:24.415Z,100727.33
2018-08-27T05:13:02.649Z,100730.95
2018-08-27T05:13:40.645Z,100729.35
2018-08-27T05:14:18.675Z,100728.45
2018-08-27T05:14:57.335Z,100728.45
2018-08-27T05:15:35.372Z,100729.14
2018-08-27T05:16:13.453Z,100723.22
2018-08-27T05:16:51.515Z,100725.17
2018-08-27T05:17:29.506Z,100721.75
2018-08-27T05:18:07.495Z,100720.72
2018-08-27T05:18:45.411Z,100714.46
2018-08-27T05:19:23.294Z,100712.19
2018-08-27T05:20:01.232Z,100710.72
2018-08-27T05:20:39.154Z,100711.61
2018-08-27T05:21:17.060Z,100710.59
2018-08-27T05:21:54.915Z,100708.08
2018-08-27T05:22:32.751Z,100705.69
2018-08-27T05:23:10.873Z,100703.87
2018-08-27T05:23:48.956Z,100700.56
2018-08-27T05:24:26.875Z,100702.73
2018-08-27T05:25:04.852Z,100700.45
2018-08-27T05:25:42.809Z,100703.66
2018-08-27T05:26:21.028Z,100699.58
2018-08-27T05:26:58.966Z,100694.56
2018-08-27T05:27:36.836Z,100687.48
2018-08-27T05:28:14.779Z,100688.84
2018-08-27T05:28:53.660Z,100691.57
2018-08-27T05:29:31.530Z,100686.12
2018-08-27T05:30:09.527Z,100685.45
2018-08-27T05:30:47.739Z,100684.53
2018-08-27T05:31:25.659Z,100694.09
2018-08-27T05:32:03.855Z,100689.18
2018-08-27T05:32:41.910Z,100685.66
2018-08-27T05:33:19.940Z,100683.85
2018-08-27T05:34:03.690Z,100687.02
2018-08-27T05:34:41.698Z,100697.95
2018-08-27T05:35:19.651Z,100694.98
2018-08-27T05:35:57.816Z,100690.32
2018-08-27T05:36:36.797Z,100687.73
2018-08-27T05:37:14.766Z,100692.50
2018-08-27T05:37:52.669Z,100697.17
2018-08-27T05:38:31.571Z,100688.63
2018-08-27T05:39:12.260Z,100691.13
2018-08-27T05:39:50.097Z,100685.80
2018-08-27T05:40:28.252Z,100686.12
2018-08-27T05:41:06.956Z,100692.27
2018-08-27T05:41:44.954Z,100687.47
2018-08-27T05:42:23.896Z,100693.61
2018-08-27T05:43:01.772Z,100677.45
2018-08-27T05:43:39.725Z,100682.22
2018-08-27T05:44:17.899Z,100681.53
2018-08-27T05:44:55.832Z,100687.80
2018-08-27T05:45:33.914Z,100676.52
2018-08-27T05:46:11.937Z,100679.02
2018-08-27T05:46:49.932Z,100678.08
2018-08-27T05:47:27.787Z,100676.48
2018-08-27T05:48:05.873Z,100678.75
2018-08-27T05:48:43.809Z,100678.63
2018-08-27T05:49:21.701Z,100681.45
2018-08-27T05:49:59.873Z,100685.78
2018-08-27T05:50:37.840Z,100684.85
2018-08-27T05:51:15.739Z,100685.75
2018-08-27T05:51:53.821Z,100681.73
2018-08-27T05:52:31.850Z,100679.00
2018-08-27T05:53:09.762Z,100682.48
2018-08-27T05:53:47.795Z,100682.61
2018-08-27T05:54:26.607Z,100683.14
2018-08-27T05:55:04.828Z,100678.55
2018-08-27T05:55:43.041Z,100676.70
2018-08-27T05:56:20.900Z,100676.00
2018-08-27T05:56:59.961Z,100675.19
2018-08-27T05:57:37.981Z,100672.31
2018-08-27T05:58:16.052Z,100669.53
2018-08-27T05:58:53.930Z,100674.65
2018-08-27T05:59:31.865Z,100670.46
2018-08-27T06:00:09.849Z,100670.44
2018-08-27T06:00:47.856Z,100664.39
2018-08-27T06:01:26.028Z,100662.45
2018-08-27T06:02:04.050Z,100658.34
2018-08-27T06:02:42.048Z,100662.89
2018-08-27T06:03:20.239Z,100657.19
2018-08-27T06:03:58.124Z,100660.15
2018-08-27T06:04:36.106Z,100658.29
2018-08-27T06:05:13.991Z,100655.34
2018-08-27T06:05:52.068Z,100652.13
2018-08-27T06:06:30.357Z,100651.20
2018-08-27T06:07:08.274Z,100649.64
2018-08-27T06:07:46.193Z,100658.56
2018-08-27T06:08:24.265Z,100645.55
2018-08-27T06:09:02.298Z,100653.52
2018-08-27T06:09:40.121Z,100651.57
2018-08-27T06:10:18.100Z,100648.17
2018-08-27T06:10:56.146Z,100649.07
2018-08-27T06:11:34.086Z,100652.38
2018-08-27T06:12:12.132Z,100643.33
2018-08-27T06:12:50.122Z,100645.19
2018-08-27T06:13:28.037Z,100643.95
2018-08-27T06:14:05.955Z,100639.77
2018-08-27T06:14:43.791Z,100643.74
2018-08-27T06:15:21.743Z,100643.74
2018-08-27T06:15:59.695Z,100636.11
2018-08-27T06:16:37.895Z,100642.38
2018-08-27T06:17:16.017Z,100634.80
2018-08-27T06:17:54.121Z,100635.86
2018-08-27T06:18:32.050Z,100631.91
2018-08-27T06:19:10.177Z,100641.65
2018-08-27T06:19:49.035Z,100640.05
2018-08-27T06:20:27.924Z,100635.95
2018-08-27T06:21:05.850Z,100632.01
2018-08-27T06:21:43.713Z,100630.64
2018-08-27T06:22:23.105Z,100627.60
2018-08-27T06:23:01.456Z,100626.47
2018-08-27T06:23:39.707Z,100629.09
2018-08-27T06:24:18.086Z,100626.72
2018-08-27T06:24:56.081Z,100629.22
2018-08-27T06:25:34.005Z,100629.11
2018-08-27T06:26:12.145Z,100623.66
2018-08-27T06:26:50.235Z,100626.83
2018-08-27T06:27:28.186Z,100620.12
2018-08-27T06:28:07.413Z,100623.98
2018-08-27T06:28:45.450Z,100615.91
2018-08-27T06:29:23.431Z,100613.19
2018-08-27T06:30:01.411Z,100618.88
2018-08-27T06:30:39.759Z,100615.58
2018-08-27T06:31:17.900Z,100612.60
2018-08-27T06:31:56.113Z,100611.91
2018-08-27T06:32:34.030Z,100609.08
2018-08-27T06:33:11.950Z,100602.36
2018-08-27T06:33:50.825Z,100608.27
2018-08-27T06:34:28.970Z,100603.72
2018-08-27T06:35:06.822Z,100595.19
2018-08-27T06:35:44.869Z,100594.94
2018-08-27T06:36:22.801Z,100590.59
2018-08-27T06:37:00.919Z,100590.22
2018-08-27T06:37:39.270Z,100587.23
2018-08-27T06:38:17.248Z,100579.92
2018-08-27T06:38:55.143Z,100585.56
2018-08-27T06:40:36.727Z,100584.72
2018-08-27T06:41:14.674Z,100582.19
2018-08-27T06:41:52.631Z,100576.34
2018-08-27T06:42:30.577Z,100578.68
2018-08-27T06:43:08.602Z,100587.27
2018-08-27T06:43:46.623Z,100576.55
2018-08-27T06:44:24.540Z,100571.77
2018-08-27T06:45:02.550Z,100581.06
2018-08-27T06:45:40.539Z,100569.54
2018-08-27T06:46:18.594Z,100568.03
2018-08-27T06:46:56.386Z,100570.77
2018-08-27T06:47:34.398Z,100573.43
2018-08-27T06:48:12.617Z,100576.22
2018-08-27T06:48:50.525Z,100576.33
2018-08-27T06:49:28.621Z,100566.17
2018-08-27T06:50:06.540Z,100558.81
2018-08-27T06:50:44.394Z,100567.46
2018-08-27T06:51:22.434Z,100559.25
2018-08-27T06:52:00.552Z,100562.62
2018-08-27T06:52:38.782Z,100570.20
2018-08-27T06:53:17.218Z,100570.96
2018-08-27T06:53:55.211Z,100560.31
2018-08-27T06:54:33.617Z,100570.22
2018-08-27T06:55:11.464Z,100558.19
2018-08-27T06:55:49.570Z,100561.66
2018-08-27T06:56:27.431Z,100561.66
2018-08-27T06:57:05.347Z,100554.96
2018-08-27T06:57:43.369Z,100557.23
2018-08-27T06:58:22.258Z,100554.06
2018-08-27T06:59:00.206Z,100557.23
2018-08-27T06:59:38.145Z,100549.50
2018-08-27T07:00:16.192Z,100555.13
2018-08-27T07:02:02.206Z,100551.53
2018-08-27T07:02:40.507Z,100556.72
2018-08-27T07:03:18.475Z,100551.52
2018-08-27T07:03:56.462Z,100554.34
2018-08-27T07:04:34.426Z,100552.77
2018-08-27T07:05:12.505Z,100555.13
2018-08-27T07:05:51.480Z,100552.47
2018-08-27T07:06:29.588Z,100552.22
2018-08-27T07:07:07.579Z,100550.44
2018-08-27T07:07:45.596Z,100549.20
2018-08-27T07:08:23.629Z,100549.50
2018-08-27T07:09:01.528Z,100544.06
2018-08-27T07:09:39.506Z,100552.50
2018-08-27T07:10:18.824Z,100548.61
2018-08-27T07:10:56.956Z,100548.34
2018-08-27T07:11:34.953Z,100544.88
2018-08-27T07:12:12.951Z,100546.97
2018-08-27T07:12:50.910Z,100546.39
2018-08-27T07:13:28.831Z,100550.00
2018-08-27T07:14:06.854Z,100552.22
2018-08-27T07:14:44.663Z,100557.01
2018-08-27T07:15:22.578Z,100552.90
2018-08-27T07:16:00.527Z,100553.11
2018-08-27T07:16:38.548Z,100557.44
2018-08-27T07:17:16.526Z,100561.34
2018-08-27T07:17:54.359Z,100557.95
2018-08-27T07:18:32.221Z,100555.06
2018-08-27T07:19:11.427Z,100557.36